PWSweather.com
Personal Weather Stations
Station Observations
SBERGENWX
Wood Ridge, NJ 07075

Wood Ridge, NJ 07075

Lat: 40.851667, Lon: -74.088131

Elevation: 177

Station Type: Davis Vantage Vue

http://201weather.com/

High Low Average
Temperature 30.2°F-1.0°C 22.3°F-5.4°C 25.9°F-3.4°C
Dew Point 14.3°F-9.8°C 6.6°F-14.1°C 10.2°F-12.1°C
Winds 2.3 mph 3.7 kmh Calm Calm Calm ESECalm ESE
Wind Gusts 9.2 mph14.8 kmh -- 2.0 mph3.2 kmh
Humidity 61% 40% 51%
Pressure 30.49 in1032.5 mb 30.30 in1026.1 mb -
Precipitation 0.00 in0.0 mm - -
Hour Temp Dew Point Humidity Winds Wind Gusts Pressure Precip Precip Rate Daily Precip Total
12:00 AM 28.3°F-2.1°C 12.9°F-10.6°C 52% Calm Calm -- 30.48 in1032.2 mb - 0.00 in0.0 mm 0.00 in0.0 mm
12:15 AM 28.2°F-2.1°C 13.2°F-10.4°C 53% Calm Calm -- 30.48 in1032.2 mb - 0.00 in0.0 mm 0.00 in0.0 mm
12:30 AM 28.0°F-2.2°C 13.1°F-10.5°C 53% Calm Calm -- 30.48 in1032.2 mb - 0.00 in0.0 mm 0.00 in0.0 mm
12:45 AM 27.9°F-2.3°C 12.9°F-10.6°C 53% Calm Calm -- 30.47 in1031.8 mb - 0.00 in0.0 mm 0.00 in0.0 mm
01:00 AM 27.8°F-2.3°C 13.3°F-10.4°C 54% Calm Calm -- 30.46 in1031.5 mb - 0.00 in0.0 mm 0.00 in0.0 mm
01:15 AM 27.6°F-2.4°C 13.5°F-10.3°C 55% Calm Calm -- 30.46 in1031.5 mb - 0.00 in0.0 mm 0.00 in0.0 mm
01:30 AM 27.6°F-2.4°C 13.5°F-10.3°C 55% Calm Calm -- 30.46 in1031.5 mb - 0.00 in0.0 mm 0.00 in0.0 mm
01:45 AM 27.3°F-2.6°C 14.1°F-9.9°C 57% Calm Calm -- 30.45 in1031.2 mb - 0.00 in0.0 mm 0.00 in0.0 mm
02:00 AM 27.1°F-2.7°C 14.3°F-9.8°C 58% Calm Calm -- 30.46 in1031.5 mb - 0.00 in0.0 mm 0.00 in0.0 mm
02:15 AM 27.1°F-2.7°C 14.3°F-9.8°C 58% Calm Calm -- 30.45 in1031.2 mb - 0.00 in0.0 mm 0.00 in0.0 mm
02:30 AM 27.0°F-2.8°C 13.8°F-10.1°C 57% Calm Calm -- 30.46 in1031.5 mb - 0.00 in0.0 mm 0.00 in0.0 mm
02:45 AM 26.8°F-2.9°C 14.0°F-10.0°C 58% Calm Calm -- 30.47 in1031.8 mb - 0.00 in0.0 mm 0.00 in0.0 mm
03:00 AM 26.6°F-3.0°C 13.8°F-10.1°C 58% Calm Calm -- 30.47 in1031.8 mb - 0.00 in0.0 mm 0.00 in0.0 mm
03:15 AM 26.5°F-3.1°C 13.3°F-10.4°C 57% Calm Calm -- 30.48 in1032.2 mb - 0.00 in0.0 mm 0.00 in0.0 mm
03:30 AM 26.4°F-3.1°C 13.2°F-10.4°C 57% Calm Calm -- 30.48 in1032.2 mb - 0.00 in0.0 mm 0.00 in0.0 mm
03:45 AM 26.2°F-3.2°C 12.6°F-10.8°C 56% Calm Calm 1.2 mph1.9 kmh 30.48 in1032.2 mb - 0.00 in0.0 mm 0.00 in0.0 mm
04:00 AM 26.0°F-3.3°C 12.0°F-11.1°C 55% Calm Calm 1.2 mph1.9 kmh 30.48 in1032.2 mb - 0.00 in0.0 mm 0.00 in0.0 mm
04:15 AM 25.8°F-3.4°C 11.8°F-11.2°C 55% Calm Calm -- 30.49 in1032.5 mb - 0.00 in0.0 mm 0.00 in0.0 mm
04:30 AM 25.7°F-3.5°C 11.3°F-11.5°C 54% Calm Calm -- 30.48 in1032.2 mb - 0.00 in0.0 mm 0.00 in0.0 mm
04:45 AM 25.6°F-3.6°C 10.8°F-11.8°C 53% Calm Calm 2.3 mph3.7 kmh 30.47 in1031.8 mb - 0.00 in0.0 mm 0.00 in0.0 mm
05:00 AM 25.3°F-3.7°C 11.0°F-11.7°C 54% Calm Calm -- 30.47 in1031.8 mb - 0.00 in0.0 mm 0.00 in0.0 mm
05:15 AM 24.9°F-3.9°C 11.8°F-11.2°C 57% 1.2 mph N1.9 kmh N 1.2 mph1.9 kmh 30.47 in1031.8 mb - 0.00 in0.0 mm 0.00 in0.0 mm
05:30 AM 24.7°F-4.1°C 11.6°F-11.3°C 57% Calm Calm -- 30.46 in1031.5 mb - 0.00 in0.0 mm 0.00 in0.0 mm
05:45 AM 24.5°F-4.2°C 10.6°F-11.9°C 55% Calm Calm -- 30.46 in1031.5 mb - 0.00 in0.0 mm 0.00 in0.0 mm
06:00 AM 24.6°F-4.1°C 9.0°F-12.8°C 51% Calm Calm -- 30.46 in1031.5 mb - 0.00 in0.0 mm 0.00 in0.0 mm
06:15 AM 24.6°F-4.1°C 8.6°F-13.0°C 50% Calm Calm -- 30.46 in1031.5 mb - 0.00 in0.0 mm 0.00 in0.0 mm
06:30 AM 24.3°F-4.3°C 8.3°F-13.2°C 50% Calm Calm -- 30.45 in1031.2 mb - 0.00 in0.0 mm 0.00 in0.0 mm
06:45 AM 24.0°F-4.4°C 9.7°F-12.4°C 54% Calm Calm -- 30.45 in1031.2 mb - 0.00 in0.0 mm 0.00 in0.0 mm
07:00 AM 23.6°F-4.7°C 10.6°F-11.9°C 57% Calm Calm -- 30.45 in1031.2 mb - 0.00 in0.0 mm 0.00 in0.0 mm
07:15 AM 23.4°F-4.8°C 11.2°F-11.6°C 59% Calm Calm -- 30.46 in1031.5 mb - 0.00 in0.0 mm 0.00 in0.0 mm
07:30 AM 23.2°F-4.9°C 10.6°F-11.9°C 58% Calm Calm 1.2 mph1.9 kmh 30.45 in1031.2 mb - 0.00 in0.0 mm 0.00 in0.0 mm
07:45 AM 22.9°F-5.1°C 9.5°F-12.5°C 56% Calm Calm -- 30.45 in1031.2 mb - 0.00 in0.0 mm 0.00 in0.0 mm
08:00 AM 23.0°F-5.0°C 8.8°F-12.9°C 54% Calm Calm -- 30.45 in1031.2 mb - 0.00 in0.0 mm 0.00 in0.0 mm
08:15 AM 23.1°F-4.9°C 8.1°F-13.3°C 52% Calm Calm -- 30.46 in1031.5 mb - 0.00 in0.0 mm 0.00 in0.0 mm
08:30 AM 23.2°F-4.9°C 7.7°F-13.5°C 51% Calm Calm -- 30.46 in1031.5 mb - 0.00 in0.0 mm 0.00 in0.0 mm
08:45 AM 23.2°F-4.9°C 6.8°F-14.0°C 49% Calm Calm 1.2 mph1.9 kmh 30.45 in1031.2 mb - 0.00 in0.0 mm 0.00 in0.0 mm
09:00 AM 23.1°F-4.9°C 7.2°F-13.8°C 50% Calm Calm 2.3 mph3.7 kmh 30.46 in1031.5 mb - 0.00 in0.0 mm 0.00 in0.0 mm
09:15 AM 23.1°F-4.9°C 7.2°F-13.8°C 50% Calm Calm -- 30.46 in1031.5 mb - 0.00 in0.0 mm 0.00 in0.0 mm
09:30 AM 23.3°F-4.8°C 7.4°F-13.7°C 50% Calm Calm -- 30.46 in1031.5 mb - 0.00 in0.0 mm 0.00 in0.0 mm
09:45 AM 23.2°F-4.9°C 6.8°F-14.0°C 49% Calm Calm 1.2 mph1.9 kmh 30.46 in1031.5 mb - 0.00 in0.0 mm 0.00 in0.0 mm
10:00 AM 22.9°F-5.1°C 6.6°F-14.1°C 49% 2.3 mph NNE3.7 kmh NNE 3.5 mph5.6 kmh 30.46 in1031.5 mb - 0.00 in0.0 mm 0.00 in0.0 mm
10:15 AM 22.7°F-5.2°C 6.8°F-14.0°C 50% Calm Calm -- 30.47 in1031.8 mb - 0.00 in0.0 mm 0.00 in0.0 mm
10:30 AM 23.3°F-4.8°C 7.8°F-13.4°C 51% Calm Calm -- 30.47 in1031.8 mb - 0.00 in0.0 mm 0.00 in0.0 mm
10:45 AM 23.8°F-4.6°C 8.7°F-12.9°C 52% Calm Calm 2.3 mph3.7 kmh 30.46 in1031.5 mb - 0.00 in0.0 mm 0.00 in0.0 mm
11:00 AM 24.8°F-4.0°C 8.8°F-12.9°C 50% Calm Calm 1.2 mph1.9 kmh 30.46 in1031.5 mb - 0.00 in0.0 mm 0.00 in0.0 mm
11:15 AM 24.1°F-4.4°C 9.0°F-12.8°C 52% 1.2 mph NNE1.9 kmh NNE 3.5 mph5.6 kmh 30.45 in1031.2 mb - 0.00 in0.0 mm 0.00 in0.0 mm
11:30 AM 24.8°F-4.0°C 9.7°F-12.4°C 52% 1.2 mph NNE1.9 kmh NNE 3.5 mph5.6 kmh 30.44 in1030.8 mb - 0.00 in0.0 mm 0.00 in0.0 mm
11:45 AM 25.9°F-3.4°C 10.3°F-12.1°C 51% Calm Calm 1.2 mph1.9 kmh 30.43 in1030.5 mb - 0.00 in0.0 mm 0.00 in0.0 mm
12:00 PM 26.9°F-2.8°C 10.7°F-11.8°C 50% Calm Calm 4.6 mph7.4 kmh 30.42 in1030.1 mb - 0.00 in0.0 mm 0.00 in0.0 mm
12:15 PM 27.0°F-2.8°C 9.9°F-12.3°C 48% Calm Calm 2.3 mph3.7 kmh 30.42 in1030.1 mb - 0.00 in0.0 mm 0.00 in0.0 mm
12:30 PM 27.5°F-2.5°C 10.3°F-12.1°C 48% Calm Calm 2.3 mph3.7 kmh 30.41 in1029.8 mb - 0.00 in0.0 mm 0.00 in0.0 mm
12:45 PM 27.6°F-2.4°C 9.5°F-12.5°C 46% 1.2 mph N1.9 kmh N 5.8 mph9.3 kmh 30.40 in1029.5 mb - 0.00 in0.0 mm 0.00 in0.0 mm
01:00 PM 27.6°F-2.4°C 9.5°F-12.5°C 46% Calm Calm -- 30.40 in1029.5 mb - 0.00 in0.0 mm 0.00 in0.0 mm
01:15 PM 27.7°F-2.4°C 9.1°F-12.7°C 45% 1.2 mph N1.9 kmh N 3.5 mph5.6 kmh 30.39 in1029.1 mb - 0.00 in0.0 mm 0.00 in0.0 mm
01:30 PM 28.1°F-2.2°C 9.4°F-12.6°C 45% Calm Calm -- 30.38 in1028.8 mb - 0.00 in0.0 mm 0.00 in0.0 mm
01:45 PM 27.9°F-2.3°C 8.8°F-12.9°C 44% 1.2 mph N1.9 kmh N 1.2 mph1.9 kmh 30.37 in1028.4 mb - 0.00 in0.0 mm 0.00 in0.0 mm
02:00 PM 28.4°F-2.0°C 8.7°F-12.9°C 43% 1.2 mph NNE1.9 kmh NNE 8.1 mph13.0 kmh 30.36 in1028.1 mb - 0.00 in0.0 mm 0.00 in0.0 mm
02:15 PM 28.6°F-1.9°C 8.4°F-13.1°C 42% Calm Calm -- 30.36 in1028.1 mb - 0.00 in0.0 mm 0.00 in0.0 mm
02:30 PM 29.0°F-1.7°C 8.2°F-13.2°C 41% Calm Calm 2.3 mph3.7 kmh 30.35 in1027.8 mb - 0.00 in0.0 mm 0.00 in0.0 mm
02:45 PM 29.6°F-1.3°C 8.7°F-12.9°C 41% Calm Calm -- 30.36 in1028.1 mb - 0.00 in0.0 mm 0.00 in0.0 mm
03:00 PM 29.6°F-1.3°C 8.2°F-13.2°C 40% Calm Calm 1.2 mph1.9 kmh 30.35 in1027.8 mb - 0.00 in0.0 mm 0.00 in0.0 mm
03:15 PM 29.7°F-1.3°C 8.8°F-12.9°C 41% Calm Calm 1.2 mph1.9 kmh 30.34 in1027.4 mb - 0.00 in0.0 mm 0.00 in0.0 mm
03:30 PM 29.8°F-1.2°C 9.0°F-12.8°C 41% 1.2 mph NE1.9 kmh NE 2.3 mph3.7 kmh 30.33 in1027.1 mb - 0.00 in0.0 mm 0.00 in0.0 mm
03:45 PM 30.2°F-1.0°C 9.3°F-12.6°C 41% 1.2 mph NE1.9 kmh NE 3.5 mph5.6 kmh 30.33 in1027.1 mb - 0.00 in0.0 mm 0.00 in0.0 mm
04:00 PM 30.2°F-1.0°C 8.7°F-12.9°C 40% 1.2 mph N1.9 kmh N 2.3 mph3.7 kmh 30.32 in1026.8 mb - 0.00 in0.0 mm 0.00 in0.0 mm
04:15 PM 29.7°F-1.3°C 8.8°F-12.9°C 41% 1.2 mph N1.9 kmh N 4.6 mph7.4 kmh 30.32 in1026.8 mb - 0.00 in0.0 mm 0.00 in0.0 mm
04:30 PM 29.6°F-1.3°C 8.8°F-12.9°C 41% Calm Calm 1.2 mph1.9 kmh 30.32 in1026.8 mb - 0.00 in0.0 mm 0.00 in0.0 mm
04:45 PM 29.4°F-1.4°C 9.1°F-12.7°C 42% 1.2 mph N1.9 kmh N 3.5 mph5.6 kmh 30.32 in1026.8 mb - 0.00 in0.0 mm 0.00 in0.0 mm
05:00 PM 29.0°F-1.7°C 9.3°F-12.6°C 43% Calm Calm -- 30.32 in1026.8 mb - 0.00 in0.0 mm 0.00 in0.0 mm
05:15 PM 28.7°F-1.8°C 10.0°F-12.2°C 45% Calm Calm -- 30.32 in1026.8 mb - 0.00 in0.0 mm 0.00 in0.0 mm
05:30 PM 28.3°F-2.1°C 9.6°F-12.4°C 45% Calm Calm 1.2 mph1.9 kmh 30.31 in1026.4 mb - 0.00 in0.0 mm 0.00 in0.0 mm
05:45 PM 28.0°F-2.2°C 9.9°F-12.3°C 46% 1.2 mph NE1.9 kmh NE 1.2 mph1.9 kmh 30.31 in1026.4 mb - 0.00 in0.0 mm 0.00 in0.0 mm
06:00 PM 27.5°F-2.5°C 9.9°F-12.3°C 47% 2.3 mph NNE3.7 kmh NNE 5.8 mph9.3 kmh 30.30 in1026.1 mb - 0.00 in0.0 mm 0.00 in0.0 mm
06:15 PM 27.4°F-2.6°C 9.8°F-12.3°C 47% 1.2 mph NNE1.9 kmh NNE 4.6 mph7.4 kmh 30.30 in1026.1 mb - 0.00 in0.0 mm 0.00 in0.0 mm
06:30 PM 27.1°F-2.7°C 9.5°F-12.5°C 47% Calm Calm 3.5 mph5.6 kmh 30.31 in1026.4 mb - 0.00 in0.0 mm 0.00 in0.0 mm
06:45 PM 26.7°F-2.9°C 9.7°F-12.4°C 48% 1.2 mph N1.9 kmh N 5.8 mph9.3 kmh 30.31 in1026.4 mb - 0.00 in0.0 mm 0.00 in0.0 mm
07:00 PM 26.7°F-2.9°C 10.1°F-12.2°C 49% Calm Calm -- 30.32 in1026.8 mb - 0.00 in0.0 mm 0.00 in0.0 mm
07:15 PM 26.6°F-3.0°C 10.0°F-12.2°C 49% 1.2 mph N1.9 kmh N 4.6 mph7.4 kmh 30.32 in1026.8 mb - 0.00 in0.0 mm 0.00 in0.0 mm
07:30 PM 26.5°F-3.1°C 10.3°F-12.1°C 50% 1.2 mph NNE1.9 kmh NNE 9.2 mph14.8 kmh 30.32 in1026.8 mb - 0.00 in0.0 mm 0.00 in0.0 mm
07:45 PM 26.3°F-3.2°C 10.2°F-12.1°C 50% Calm Calm 2.3 mph3.7 kmh 30.32 in1026.8 mb - 0.00 in0.0 mm 0.00 in0.0 mm
08:00 PM 26.0°F-3.3°C 10.3°F-12.1°C 51% 1.2 mph NNE1.9 kmh NNE 5.8 mph9.3 kmh 30.32 in1026.8 mb - 0.00 in0.0 mm 0.00 in0.0 mm
08:15 PM 25.7°F-3.5°C 10.5°F-11.9°C 52% Calm Calm 1.2 mph1.9 kmh 30.31 in1026.4 mb - 0.00 in0.0 mm 0.00 in0.0 mm
08:30 PM 25.5°F-3.6°C 10.3°F-12.1°C 52% Calm Calm 2.3 mph3.7 kmh 30.32 in1026.8 mb - 0.00 in0.0 mm 0.00 in0.0 mm
08:45 PM 25.3°F-3.7°C 10.5°F-11.9°C 53% 1.2 mph NNE1.9 kmh NNE 3.5 mph5.6 kmh 30.31 in1026.4 mb - 0.00 in0.0 mm 0.00 in0.0 mm
09:00 PM 25.1°F-3.8°C 10.8°F-11.8°C 54% Calm Calm 1.2 mph1.9 kmh 30.31 in1026.4 mb - 0.00 in0.0 mm 0.00 in0.0 mm
09:15 PM 25.0°F-3.9°C 10.7°F-11.8°C 54% 1.2 mph N1.9 kmh N 6.9 mph11.1 kmh 30.31 in1026.4 mb - 0.00 in0.0 mm 0.00 in0.0 mm
09:30 PM 25.0°F-3.9°C 10.7°F-11.8°C 54% 2.3 mph NNE3.7 kmh NNE 6.9 mph11.1 kmh 30.31 in1026.4 mb - 0.00 in0.0 mm 0.00 in0.0 mm
09:45 PM 24.9°F-3.9°C 11.0°F-11.7°C 55% 2.3 mph NE3.7 kmh NE 3.5 mph5.6 kmh 30.31 in1026.4 mb - 0.00 in0.0 mm 0.00 in0.0 mm
10:00 PM 24.9°F-3.9°C 11.0°F-11.7°C 55% Calm Calm 2.3 mph3.7 kmh 30.31 in1026.4 mb - 0.00 in0.0 mm 0.00 in0.0 mm
10:15 PM 24.7°F-4.1°C 11.2°F-11.6°C 56% 1.2 mph N1.9 kmh N 4.6 mph7.4 kmh 30.31 in1026.4 mb - 0.00 in0.0 mm 0.00 in0.0 mm
10:30 PM 24.4°F-4.2°C 11.3°F-11.5°C 57% 1.2 mph N1.9 kmh N 6.9 mph11.1 kmh 30.31 in1026.4 mb - 0.00 in0.0 mm 0.00 in0.0 mm
10:45 PM 24.2°F-4.3°C 11.1°F-11.6°C 57% 1.2 mph N1.9 kmh N 4.6 mph7.4 kmh 30.32 in1026.8 mb - 0.00 in0.0 mm 0.00 in0.0 mm
11:00 PM 24.0°F-4.4°C 11.3°F-11.5°C 58% Calm Calm 2.3 mph3.7 kmh 30.31 in1026.4 mb - 0.00 in0.0 mm 0.00 in0.0 mm
11:15 PM 23.8°F-4.6°C 11.2°F-11.6°C 58% Calm Calm 2.3 mph3.7 kmh 30.31 in1026.4 mb - 0.00 in0.0 mm 0.00 in0.0 mm
11:30 PM 23.5°F-4.7°C 11.3°F-11.5°C 59% Calm Calm -- 30.31 in1026.4 mb - 0.00 in0.0 mm 0.00 in0.0 mm
11:45 PM 23.1°F-4.9°C 10.9°F-11.7°C 59% Calm Calm 2.3 mph3.7 kmh 30.31 in1026.4 mb - 0.00 in0.0 mm 0.00 in0.0 mm